createdAt,value
2018-11-14T00:01:41.854Z,102719.47
2018-11-14T00:04:10.071Z,102713.31
2018-11-14T00:06:38.036Z,102715.61
2018-11-14T00:09:20.957Z,102722.53
2018-11-14T00:11:49.364Z,102724.84
2018-11-14T00:14:17.424Z,102734.97
2018-11-14T00:16:45.457Z,102735.91
2018-11-14T00:19:13.565Z,102733.45
2018-11-14T00:21:41.678Z,102729.95
2018-11-14T00:24:09.963Z,102736.89
2018-11-14T00:26:38.097Z,102738.91
2018-11-14T00:29:06.131Z,102742.06
2018-11-14T00:31:34.133Z,102741.97
2018-11-14T00:34:02.374Z,102751.37
2018-11-14T00:36:30.211Z,102750.17
2018-11-14T00:38:58.230Z,102752.88
2018-11-14T00:41:26.230Z,102748.02
2018-11-14T00:43:54.317Z,102745.53
2018-11-14T00:46:22.291Z,102740.60
2018-11-14T00:48:50.384Z,102737.77
2018-11-14T00:51:18.458Z,102741.09
2018-11-14T00:53:46.426Z,102738.64
2018-11-14T00:56:14.433Z,102739.14
2018-11-14T00:58:42.388Z,102727.84
2018-11-14T01:01:10.379Z,102732.25
2018-11-14T01:03:38.350Z,102732.55
2018-11-14T01:06:06.319Z,102725.28
2018-11-14T01:08:34.295Z,102724.38
2018-11-14T01:11:02.961Z,102722.04
2018-11-14T01:13:30.947Z,102733.53
2018-11-14T01:15:58.935Z,102736.60
2018-11-14T01:18:27.537Z,102724.38
2018-11-14T01:20:55.473Z,102741.41
2018-11-14T01:23:23.472Z,102738.29
2018-11-14T01:25:51.524Z,102737.14
2018-11-14T01:28:19.544Z,102739.23
2018-11-14T01:33:48.766Z,102728.48
2018-11-14T01:36:16.933Z,102734.27
2018-11-14T01:38:45.106Z,102732.58
2018-11-14T01:41:13.218Z,102727.62
2018-11-14T01:43:41.328Z,102735.52
2018-11-14T01:46:09.416Z,102735.64
2018-11-14T01:48:37.558Z,102734.03
2018-11-14T01:51:07.466Z,102745.45
2018-11-14T01:53:36.413Z,102741.59
2018-11-14T01:56:05.979Z,102741.00
2018-11-14T01:58:34.158Z,102748.59
2018-11-14T02:01:02.307Z,102742.34
2018-11-14T02:03:30.459Z,102741.43
2018-11-14T02:05:58.684Z,102737.49
2018-11-14T02:08:26.843Z,102735.47
2018-11-14T02:10:55.057Z,102732.12
2018-11-14T02:13:23.215Z,102730.22
2018-11-14T02:15:51.302Z,102732.45
2018-11-14T02:18:19.406Z,102732.06
2018-11-14T02:20:47.605Z,102720.02
2018-11-14T02:23:15.692Z,102731.22
2018-11-14T02:25:43.737Z,102738.44
2018-11-14T02:28:11.840Z,102738.02
2018-11-14T02:30:39.914Z,102741.46
2018-11-14T02:33:08.090Z,102743.17
2018-11-14T02:35:36.287Z,102733.98
2018-11-14T02:38:04.366Z,102732.38
2018-11-14T02:40:33.122Z,102726.59
2018-11-14T02:43:01.222Z,102724.59
2018-11-14T02:45:29.287Z,102716.41
2018-11-14T02:47:57.388Z,102707.80
2018-11-14T02:50:25.618Z,102705.66
2018-11-14T02:52:53.669Z,102703.44
2018-11-14T02:55:21.730Z,102701.72
2018-11-14T02:57:49.982Z,102707.87
2018-11-14T03:00:19.490Z,102710.44
2018-11-14T03:02:47.711Z,102712.05
2018-11-14T03:05:15.881Z,102709.00
2018-11-14T03:07:44.076Z,102705.48
2018-11-14T03:10:15.346Z,102703.86
2018-11-14T03:12:43.511Z,102697.20
2018-11-14T03:15:14.517Z,102703.22
2018-11-14T03:17:42.744Z,102694.23
2018-11-14T03:20:15.766Z,102688.68
2018-11-14T03:22:44.127Z,102681.70
2018-11-14T03:25:13.193Z,102678.58
2018-11-14T03:27:42.111Z,102681.50
2018-11-14T03:30:12.778Z,102680.00
2018-11-14T03:32:41.781Z,102669.67
2018-11-14T03:35:10.845Z,102672.97
2018-11-14T03:37:39.145Z,102671.77
2018-11-14T03:40:09.154Z,102673.72
2018-11-14T03:42:37.569Z,102688.08
2018-11-14T03:45:06.542Z,102680.48
2018-11-14T03:47:34.697Z,102687.89
2018-11-14T03:50:02.991Z,102683.91
2018-11-14T03:52:31.112Z,102680.48
2018-11-14T03:54:59.292Z,102686.45
2018-11-14T03:57:27.760Z,102692.63
2018-11-14T03:59:56.007Z,102696.69
2018-11-14T04:02:24.171Z,102694.86
2018-11-14T04:04:52.274Z,102689.99
2018-11-14T04:07:20.422Z,102689.99
2018-11-14T04:09:48.594Z,102694.64
2018-11-14T04:12:16.763Z,102692.95
2018-11-14T04:14:44.905Z,102697.17
2018-11-14T04:17:12.980Z,102693.94
2018-11-14T04:19:41.132Z,102686.48
2018-11-14T04:22:10.099Z,102689.11
2018-11-14T04:24:38.237Z,102687.39
2018-11-14T04:27:06.358Z,102688.30
2018-11-14T04:29:34.461Z,102691.91
2018-11-14T04:32:02.647Z,102695.77
2018-11-14T04:34:30.727Z,102699.39
2018-11-14T04:36:58.896Z,102704.23
2018-11-14T04:39:26.985Z,102702.52
2018-11-14T04:41:55.131Z,102704.77
2018-11-14T04:44:23.213Z,102698.47
2018-11-14T04:46:52.308Z,102701.63
2018-11-14T04:49:20.422Z,102697.39
2018-11-14T04:51:48.572Z,102691.31
2018-11-14T04:54:17.541Z,102691.61
2018-11-14T04:56:45.700Z,102695.67
2018-11-14T04:59:13.858Z,102692.41
2018-11-14T05:01:41.916Z,102701.20
2018-11-14T05:04:10.002Z,102707.56
2018-11-14T05:06:38.095Z,102706.45
2018-11-14T05:09:08.486Z,102711.00
2018-11-14T05:11:36.588Z,102709.19
2018-11-14T05:14:05.191Z,102717.06
2018-11-14T05:16:33.368Z,102715.66
2018-11-14T05:19:01.500Z,102723.81
2018-11-14T05:21:29.648Z,102723.34
2018-11-14T05:23:57.785Z,102731.92
2018-11-14T05:26:26.257Z,102735.77
2018-11-14T05:28:54.326Z,102731.94
2018-11-14T05:31:22.490Z,102730.52
2018-11-14T05:33:50.746Z,102738.69
2018-11-14T05:36:19.032Z,102739.40
2018-11-14T05:38:47.190Z,102723.25
2018-11-14T05:41:15.416Z,102715.16
2018-11-14T05:43:43.719Z,102717.59
2018-11-14T05:46:11.830Z,102720.22
2018-11-14T05:48:40.011Z,102726.06
2018-11-14T05:51:08.113Z,102720.40
2018-11-14T05:53:36.348Z,102726.88
2018-11-14T05:56:04.675Z,102724.02
2018-11-14T05:58:32.828Z,102719.77
2018-11-14T06:01:00.923Z,102717.31
2018-11-14T06:03:29.012Z,102721.19
2018-11-14T06:05:57.124Z,102726.16
2018-11-14T06:08:25.275Z,102713.78
2018-11-14T06:10:53.442Z,102723.73
2018-11-14T06:13:21.531Z,102725.36
2018-11-14T06:15:49.722Z,102729.98
2018-11-14T06:18:17.923Z,102729.30
2018-11-14T06:20:46.039Z,102731.17
2018-11-14T06:23:14.182Z,102728.37
2018-11-14T06:25:42.326Z,102727.84
2018-11-14T06:28:11.124Z,102719.09
2018-11-14T06:30:40.472Z,102712.72
2018-11-14T06:33:09.573Z,102707.47
2018-11-14T06:35:37.698Z,102704.72
2018-11-14T06:38:06.043Z,102709.58
2018-11-14T06:40:34.257Z,102699.97
2018-11-14T06:43:02.434Z,102706.34
2018-11-14T06:45:31.583Z,102707.94
2018-11-14T06:48:00.601Z,102700.77
2018-11-14T06:50:28.803Z,102708.41
2018-11-14T06:52:58.463Z,102704.39
2018-11-14T06:55:26.610Z,102707.39
2018-11-14T06:57:54.796Z,102719.41
2018-11-14T07:00:30.413Z,102714.48
2018-11-14T07:02:59.355Z,102705.79
2018-11-14T07:05:27.569Z,102712.06
2018-11-14T07:07:55.696Z,102718.95
2018-11-14T07:10:25.089Z,102722.86
2018-11-14T07:12:53.502Z,102725.77
2018-11-14T07:15:23.041Z,102731.64
2018-11-14T07:17:52.137Z,102732.45
2018-11-14T07:20:22.925Z,102732.95
2018-11-14T07:22:51.095Z,102742.55
2018-11-14T07:25:19.325Z,102740.30
2018-11-14T07:27:47.484Z,102743.95
2018-11-14T07:30:17.835Z,102751.74
2018-11-14T07:32:47.724Z,102765.33
2018-11-14T07:35:16.955Z,102753.88
2018-11-14T07:37:49.970Z,102748.42
2018-11-14T07:40:18.837Z,102750.72
2018-11-14T07:42:48.581Z,102747.77
2018-11-14T07:45:16.861Z,102748.02
2018-11-14T07:47:45.034Z,102747.31
2018-11-14T07:50:14.422Z,102746.12
2018-11-14T07:52:43.453Z,102740.12
2018-11-14T07:55:12.224Z,102731.96
2018-11-14T07:57:40.444Z,102732.69
2018-11-14T08:00:13.000Z,102732.48
2018-11-14T08:02:41.855Z,102727.53
2018-11-14T08:05:09.960Z,102724.52
2018-11-14T08:07:38.094Z,102722.88
2018-11-14T08:10:08.417Z,102730.18
2018-11-14T08:12:37.419Z,102736.34
2018-11-14T08:15:07.100Z,102728.08
2018-11-14T08:17:36.796Z,102732.38
2018-11-14T08:20:09.526Z,102743.61
2018-11-14T08:22:37.761Z,102744.80
2018-11-14T08:25:06.345Z,102748.66
2018-11-14T08:27:34.396Z,102763.73
2018-11-14T08:30:02.528Z,102771.36
2018-11-14T08:32:31.417Z,102775.41
2018-11-14T08:35:17.756Z,102782.79
2018-11-14T08:37:48.006Z,102771.95
2018-11-14T08:40:17.342Z,102778.06
2018-11-14T08:42:49.321Z,102772.46
2018-11-14T08:45:19.579Z,102763.09
2018-11-14T08:47:58.563Z,102757.03
2018-11-14T08:50:27.975Z,102751.78
2018-11-14T08:52:57.693Z,102739.95
2018-11-14T08:55:26.010Z,102750.27
2018-11-14T08:57:59.689Z,102747.44
2018-11-14T09:00:29.363Z,102745.80
2018-11-14T09:02:58.399Z,102750.38
2018-11-14T09:05:59.134Z,102757.70
2018-11-14T09:08:57.495Z,102771.83
2018-11-14T09:11:38.455Z,102775.27
2018-11-14T09:14:26.478Z,102774.14
2018-11-14T09:17:18.486Z,102766.36
2018-11-14T09:24:59.703Z,102774.07
2018-11-14T09:27:29.032Z,102775.36
2018-11-14T09:30:28.223Z,102780.91
2018-11-14T09:33:19.050Z,102776.26
2018-11-14T09:36:19.983Z,102776.17
2018-11-14T09:38:49.922Z,102789.86
2018-11-14T09:41:18.151Z,102785.98
2018-11-14T09:43:46.305Z,102785.87
2018-11-14T09:46:14.474Z,102784.16
2018-11-14T09:48:42.712Z,102782.23
2018-11-14T09:51:10.916Z,102787.47
2018-11-14T09:53:39.138Z,102788.21
2018-11-14T09:56:07.343Z,102791.03
2018-11-14T09:58:35.503Z,102798.11
2018-11-14T10:01:03.891Z,102795.47
2018-11-14T10:03:32.064Z,102792.35
2018-11-14T10:06:00.350Z,102796.11
2018-11-14T10:08:28.541Z,102789.50
2018-11-14T10:10:56.871Z,102796.27
2018-11-14T10:13:40.432Z,102795.97
2018-11-14T10:16:08.633Z,102795.85
2018-11-14T10:18:39.198Z,102792.39
2018-11-14T10:21:11.110Z,102795.84
2018-11-14T10:23:40.540Z,102790.58
2018-11-14T10:26:09.930Z,102777.72
2018-11-14T10:28:46.434Z,102779.52
2018-11-14T10:31:14.867Z,102774.66
2018-11-14T10:33:43.228Z,102771.38
2018-11-14T10:36:11.978Z,102768.67
2018-11-14T10:38:40.901Z,102766.05
2018-11-14T10:41:09.684Z,102766.34
2018-11-14T10:43:38.016Z,102757.33
2018-11-14T10:46:06.316Z,102756.00
2018-11-14T10:48:34.442Z,102753.73
2018-11-14T10:51:02.687Z,102754.62
2018-11-14T10:53:30.830Z,102759.27
2018-11-14T10:55:59.015Z,102752.56
2018-11-14T10:58:27.335Z,102758.19
2018-11-14T11:01:01.034Z,102765.37
2018-11-14T11:03:39.818Z,102761.30
2018-11-14T11:06:13.957Z,102755.92
2018-11-14T11:08:47.826Z,102761.87
2018-11-14T11:11:18.519Z,102758.20
2018-11-14T11:14:20.324Z,102756.44
2018-11-14T11:16:54.031Z,102754.02
2018-11-14T11:19:27.550Z,102750.72
2018-11-14T11:21:55.763Z,102742.02
2018-11-14T11:24:24.050Z,102750.93
2018-11-14T11:26:52.142Z,102747.34
2018-11-14T11:29:20.261Z,102743.84
2018-11-14T11:31:48.490Z,102750.70
2018-11-14T11:34:17.670Z,102749.02
2018-11-14T11:36:45.815Z,102742.77
2018-11-14T11:39:20.909Z,102739.76
2018-11-14T11:41:49.438Z,102733.64
2018-11-14T11:44:17.579Z,102735.80
2018-11-14T11:46:45.753Z,102736.65
2018-11-14T11:49:13.975Z,102732.12
2018-11-14T11:51:42.081Z,102728.80
2018-11-14T11:57:30.870Z,102718.18
2018-11-14T12:00:04.364Z,102717.66
2018-11-14T12:02:36.590Z,102721.83
2018-11-14T12:05:06.116Z,102722.31
2018-11-14T12:07:34.315Z,102714.66
2018-11-14T12:10:02.558Z,102714.48
2018-11-14T12:12:30.709Z,102702.19
2018-11-14T12:14:58.908Z,102704.73
2018-11-14T12:17:27.236Z,102702.13
2018-11-14T12:19:55.302Z,102700.71
2018-11-14T12:22:23.500Z,102696.91
2018-11-14T12:24:51.597Z,102691.56
2018-11-14T12:27:19.785Z,102700.70
2018-11-14T12:29:47.900Z,102692.45
2018-11-14T12:32:16.342Z,102694.45
2018-11-14T12:34:44.529Z,102691.23
2018-11-14T12:37:12.759Z,102686.36
2018-11-14T12:39:40.864Z,102686.53
2018-11-14T12:42:09.016Z,102688.41
2018-11-14T12:44:37.120Z,102682.30
2018-11-14T12:47:05.348Z,102683.39
2018-11-14T12:49:33.476Z,102687.67
2018-11-14T12:52:01.608Z,102683.95
2018-11-14T12:54:29.714Z,102683.88
2018-11-14T12:56:57.846Z,102681.09
2018-11-14T12:59:26.002Z,102677.86
2018-11-14T13:01:54.026Z,102683.98
2018-11-14T13:04:22.185Z,102684.31
2018-11-14T13:06:50.819Z,102683.22
2018-11-14T13:09:18.921Z,102679.50
2018-11-14T13:11:46.985Z,102685.03
2018-11-14T13:14:15.079Z,102683.31
2018-11-14T13:16:43.204Z,102684.78
2018-11-14T13:19:11.272Z,102686.45
2018-11-14T13:21:39.435Z,102679.50
2018-11-14T13:24:07.639Z,102677.35
2018-11-14T13:26:35.710Z,102679.19
2018-11-14T13:29:03.833Z,102670.67
2018-11-14T13:31:31.979Z,102680.67
2018-11-14T13:34:00.081Z,102674.97
2018-11-14T13:36:28.184Z,102673.22
2018-11-14T13:38:56.313Z,102674.08
2018-11-14T13:41:24.356Z,102671.33
2018-11-14T13:43:52.398Z,102675.45
2018-11-14T13:46:20.530Z,102673.91
2018-11-14T13:48:48.704Z,102670.77
2018-11-14T13:51:16.913Z,102668.28
2018-11-14T13:53:44.869Z,102669.27
2018-11-14T13:56:12.929Z,102672.02
2018-11-14T13:58:40.982Z,102671.17
2018-11-14T14:01:09.145Z,102673.23
2018-11-14T14:03:37.168Z,102676.70
2018-11-14T14:06:05.393Z,102674.73
2018-11-14T14:08:33.514Z,102674.91
2018-11-14T14:11:01.620Z,102670.58
2018-11-14T14:13:29.674Z,102660.87
2018-11-14T14:15:57.768Z,102668.22
2018-11-14T14:18:26.468Z,102666.79
2018-11-14T14:20:54.494Z,102672.02
2018-11-14T14:23:22.614Z,102661.36
2018-11-14T14:25:51.629Z,102662.03
2018-11-14T14:28:19.670Z,102661.10
2018-11-14T14:30:47.801Z,102649.81
2018-11-14T14:33:15.921Z,102661.36
2018-11-14T14:35:44.063Z,102660.36
2018-11-14T14:38:12.181Z,102668.05
2018-11-14T14:40:40.227Z,102666.38
2018-11-14T14:43:08.260Z,102667.80
2018-11-14T14:45:36.350Z,102667.97
2018-11-14T14:48:04.505Z,102675.79
2018-11-14T14:50:32.834Z,102671.77
2018-11-14T14:53:00.887Z,102671.00
2018-11-14T14:55:29.000Z,102674.70
2018-11-14T14:57:57.052Z,102677.02
2018-11-14T15:00:26.554Z,102669.84
2018-11-14T15:02:54.702Z,102670.94
2018-11-14T15:05:22.765Z,102669.94
2018-11-14T15:07:50.861Z,102678.27
2018-11-14T15:10:20.337Z,102681.66
2018-11-14T15:12:48.440Z,102680.98
2018-11-14T15:15:17.060Z,102681.66
2018-11-14T15:17:45.239Z,102678.59
2018-11-14T15:20:16.513Z,102670.09
2018-11-14T15:22:44.738Z,102674.70
2018-11-14T15:25:14.826Z,102672.90
2018-11-14T15:27:43.410Z,102677.86
2018-11-14T15:30:15.035Z,102669.67
2018-11-14T15:32:43.210Z,102666.94
2018-11-14T15:35:12.015Z,102671.73
2018-11-14T15:37:40.293Z,102664.30
2018-11-14T15:40:10.720Z,102662.98
2018-11-14T15:42:39.011Z,102672.53
2018-11-14T15:45:09.128Z,102665.94
2018-11-14T15:47:37.897Z,102669.21
2018-11-14T15:50:08.610Z,102664.50
2018-11-14T15:52:36.676Z,102670.36
2018-11-14T15:55:05.871Z,102668.56
2018-11-14T15:57:34.065Z,102670.03
2018-11-14T16:00:02.204Z,102671.77
2018-11-14T16:02:30.306Z,102673.26
2018-11-14T16:04:58.469Z,102667.39
2018-11-14T16:07:26.517Z,102664.28
2018-11-14T16:09:54.552Z,102668.24
2018-11-14T16:12:22.641Z,102664.67
2018-11-14T16:14:51.624Z,102666.92
2018-11-14T16:17:19.717Z,102665.09
2018-11-14T16:19:47.781Z,102661.87
2018-11-14T16:22:15.943Z,102662.54
2018-11-14T16:24:44.042Z,102665.33
2018-11-14T16:27:12.233Z,102662.59
2018-11-14T16:29:40.318Z,102657.73
2018-11-14T16:32:08.359Z,102654.31
2018-11-14T16:34:36.942Z,102649.34
2018-11-14T16:37:05.038Z,102647.44
2018-11-14T16:39:33.070Z,102644.95
2018-11-14T16:42:01.483Z,102652.76
2018-11-14T16:44:29.607Z,102652.91
2018-11-14T16:46:57.615Z,102654.53
2018-11-14T16:49:25.706Z,102655.16
2018-11-14T16:51:53.784Z,102658.64
2018-11-14T16:54:21.865Z,102660.41
2018-11-14T16:56:49.944Z,102669.95
2018-11-14T16:59:18.943Z,102669.36
2018-11-14T17:01:47.495Z,102670.61
2018-11-14T17:04:15.541Z,102672.66
2018-11-14T17:06:43.636Z,102673.87
2018-11-14T17:09:12.693Z,102674.49
2018-11-14T17:11:40.921Z,102680.84
2018-11-14T17:14:09.108Z,102675.67
2018-11-14T17:16:37.933Z,102676.50
2018-11-14T17:19:06.041Z,102679.97
2018-11-14T17:21:34.804Z,102676.77
2018-11-14T17:24:03.169Z,102669.72
2018-11-14T17:26:31.254Z,102673.26
2018-11-14T17:28:59.352Z,102672.18
2018-11-14T17:31:27.403Z,102662.09
2018-11-14T17:33:55.462Z,102674.73
2018-11-14T17:36:23.505Z,102672.92
2018-11-14T17:38:51.661Z,102671.50
2018-11-14T17:41:19.863Z,102679.64
2018-11-14T17:43:47.950Z,102679.05
2018-11-14T17:46:16.122Z,102688.16
2018-11-14T17:48:44.665Z,102681.98
2018-11-14T17:51:21.030Z,102691.02
2018-11-14T17:53:49.024Z,102688.62
2018-11-14T17:56:16.892Z,102693.36
2018-11-14T17:58:44.764Z,102692.88
2018-11-14T18:01:12.745Z,102696.22
2018-11-14T18:03:40.896Z,102703.52
2018-11-14T18:06:08.918Z,102706.95
2018-11-14T18:08:36.959Z,102696.55
2018-11-14T18:11:05.407Z,102701.73
2018-11-14T18:13:33.224Z,102699.82
2018-11-14T18:16:01.658Z,102685.05
2018-11-14T18:18:29.545Z,102694.56
2018-11-14T18:20:57.410Z,102691.82
2018-11-14T18:23:25.369Z,102686.38
2018-11-14T18:25:53.460Z,102687.20
2018-11-14T18:28:22.095Z,102688.70
2018-11-14T18:30:50.592Z,102687.31
2018-11-14T18:33:18.621Z,102683.48
2018-11-14T18:35:46.561Z,102691.08
2018-11-14T18:38:14.465Z,102685.52
2018-11-14T18:40:42.331Z,102690.59
2018-11-14T18:43:10.197Z,102680.80
2018-11-14T18:45:38.049Z,102675.23
2018-11-14T18:48:06.566Z,102675.83
2018-11-14T18:50:34.428Z,102672.98
2018-11-14T18:53:02.286Z,102668.66
2018-11-14T18:55:33.179Z,102669.03
2018-11-14T18:58:01.896Z,102669.14
2018-11-14T19:00:31.425Z,102668.13
2018-11-14T19:02:59.450Z,102672.08
2018-11-14T19:05:27.579Z,102664.52
2018-11-14T19:07:55.528Z,102668.35
2018-11-14T19:10:28.925Z,102673.50
2018-11-14T19:12:56.898Z,102667.56
2018-11-14T19:15:26.171Z,102665.64
2018-11-14T19:17:54.203Z,102667.97
2018-11-14T19:20:24.543Z,102670.06
2018-11-14T19:22:52.960Z,102671.72
2018-11-14T19:25:33.246Z,102671.49
2018-11-14T19:28:01.203Z,102667.96
2018-11-14T19:30:30.415Z,102671.00
2018-11-14T19:32:59.089Z,102669.19
2018-11-14T19:35:26.993Z,102671.30
2018-11-14T19:37:55.651Z,102668.06
2018-11-14T19:40:24.974Z,102678.50
2018-11-14T19:42:54.490Z,102669.59
2018-11-14T19:45:23.845Z,102670.30
2018-11-14T19:47:51.677Z,102663.42
2018-11-14T19:50:20.555Z,102664.84
2018-11-14T19:52:48.774Z,102667.55
2018-11-14T19:55:18.013Z,102667.35
2018-11-14T19:57:46.778Z,102667.27
2018-11-14T20:00:18.957Z,102672.91
2018-11-14T20:02:47.123Z,102667.98
2018-11-14T20:05:15.789Z,102670.98
2018-11-14T20:07:43.578Z,102674.73
2018-11-14T20:10:13.534Z,102672.10
2018-11-14T20:12:41.564Z,102670.30
2018-11-14T20:15:11.687Z,102672.80
2018-11-14T20:17:40.453Z,102667.77
2018-11-14T20:20:10.826Z,102668.47
2018-11-14T20:22:38.682Z,102673.02
2018-11-14T20:25:06.845Z,102673.31
2018-11-14T20:27:37.835Z,102675.04
2018-11-14T20:30:11.757Z,102671.09
2018-11-14T20:32:39.949Z,102666.44
2018-11-14T20:35:09.355Z,102671.28
2018-11-14T20:37:37.450Z,102667.66
2018-11-14T20:40:06.911Z,102664.80
2018-11-14T20:42:35.156Z,102669.56
2018-11-14T20:45:03.297Z,102676.42
2018-11-14T20:47:31.475Z,102673.30
2018-11-14T20:49:59.830Z,102671.15
2018-11-14T20:52:27.685Z,102663.19
2018-11-14T20:54:55.582Z,102667.13
2018-11-14T20:57:24.360Z,102664.50
2018-11-14T20:59:52.352Z,102668.33
2018-11-14T21:02:20.257Z,102667.53
2018-11-14T21:04:48.173Z,102669.44
2018-11-14T21:07:16.040Z,102671.74
2018-11-14T21:09:43.939Z,102672.03
2018-11-14T21:12:11.845Z,102674.75
2018-11-14T21:14:39.851Z,102677.29
2018-11-14T21:17:07.786Z,102670.31
2018-11-14T21:19:35.591Z,102669.82
2018-11-14T21:22:03.520Z,102663.55
2018-11-14T21:24:31.610Z,102676.68
2018-11-14T21:26:59.434Z,102676.15
2018-11-14T21:29:27.342Z,102675.66
2018-11-14T21:31:55.276Z,102672.21
2018-11-14T21:34:23.203Z,102674.84
2018-11-14T21:36:51.119Z,102679.71
2018-11-14T21:39:19.020Z,102686.89
2018-11-14T21:41:47.011Z,102683.73
2018-11-14T21:44:14.890Z,102681.93
2018-11-14T21:46:42.844Z,102682.51
2018-11-14T21:49:16.297Z,102680.79
2018-11-14T21:51:44.212Z,102679.68
2018-11-14T21:54:12.082Z,102680.05
2018-11-14T21:56:58.044Z,102675.02
2018-11-14T21:59:26.513Z,102682.64
2018-11-14T22:01:54.413Z,102679.41
2018-11-14T22:04:22.204Z,102682.23
2018-11-14T22:06:50.038Z,102680.59
2018-11-14T22:09:18.505Z,102680.38
2018-11-14T22:11:46.365Z,102674.11
2018-11-14T22:14:14.216Z,102677.84
2018-11-14T22:16:42.064Z,102681.33
2018-11-14T22:19:09.898Z,102677.78
2018-11-14T22:21:37.748Z,102680.48
2018-11-14T22:24:05.664Z,102683.60
2018-11-14T22:26:33.533Z,102677.45
2018-11-14T22:29:01.610Z,102671.75
2018-11-14T22:31:29.649Z,102673.38
2018-11-14T22:33:57.521Z,102668.52
2018-11-14T22:36:25.413Z,102668.52
2018-11-14T22:38:53.304Z,102671.95
2018-11-14T22:41:21.147Z,102663.87
2018-11-14T22:43:49.018Z,102672.02
2018-11-14T22:46:16.864Z,102672.52
2018-11-14T22:48:44.670Z,102670.30
2018-11-14T22:51:12.586Z,102668.99
2018-11-14T22:53:40.436Z,102670.59
2018-11-14T22:56:08.320Z,102671.28
2018-11-14T22:58:36.145Z,102671.84
2018-11-14T23:01:04.728Z,102667.58
2018-11-14T23:03:32.546Z,102667.73
2018-11-14T23:06:00.402Z,102668.95
2018-11-14T23:08:28.364Z,102666.42
2018-11-14T23:10:56.336Z,102666.74
2018-11-14T23:13:24.214Z,102667.11
2018-11-14T23:15:52.082Z,102664.81
2018-11-14T23:18:20.030Z,102663.66
2018-11-14T23:20:48.011Z,102660.01
2018-11-14T23:23:16.025Z,102666.56
2018-11-14T23:25:43.874Z,102666.97
2018-11-14T23:28:11.782Z,102667.16
2018-11-14T23:30:39.691Z,102666.41
2018-11-14T23:33:07.546Z,102669.38
2018-11-14T23:35:35.501Z,102672.97
2018-11-14T23:38:04.625Z,102671.44
2018-11-14T23:40:32.598Z,102670.81
2018-11-14T23:43:00.897Z,102672.25
2018-11-14T23:45:29.556Z,102671.63
2018-11-14T23:47:57.383Z,102662.33
2018-11-14T23:50:27.358Z,102664.95
2018-11-14T23:52:56.236Z,102661.33
2018-11-14T23:55:24.921Z,102664.50
2018-11-14T23:57:52.914Z,102667.36
